Athol, Massachusetts
Current Conditions -  °F | °C
As of 10:52 AM on Saturday 25 Oct 2014 (Local Time) from KORE Reporting Station
Clear Clear  
Wind Chill: 53°   Ceiling: Unl
Heat Index: 53°   Visibility: 10mi
Dew Point: 42°   Wind: 6mph
Humidity: 66%   Direction: 250°WSW
Pressure: 29.75"   Gusts: NA
Location:  42.59°N, 72.23°W
Report Text: KORE 251452Z AUTO 25005KT 10SM CLR 12/06 A2975 RMK AO2 SLP078 T01170056 58012
Loading
Personal Weather Stations






























Interactive Weather Map
Tropical Storm Tracking
New forecast layout! Learn more

10-Day Weather Forecast

Advertisements
Track Severe Weather on mobile